sensor_id;sensor_type;location;lat;lon;timestamp;pressure;altitude;pressure_sealevel;temperature;humidity
49645;BME280;36494;50.730;-1.932;2023-04-28T00:01:43;100393.48;;;11.70;100.00
49645;BME280;36494;50.730;-1.932;2023-04-28T00:04:08;100390.04;;;11.60;100.00
49645;BME280;36494;50.730;-1.932;2023-04-28T00:06:34;100392.93;;;11.56;100.00
49645;BME280;36494;50.730;-1.932;2023-04-28T00:08:59;100392.37;;;11.53;100.00
49645;BME280;36494;50.730;-1.932;2023-04-28T00:11:24;100387.13;;;11.51;100.00
49645;BME280;36494;50.730;-1.932;2023-04-28T00:13:50;100385.20;;;11.48;100.00
49645;BME280;36494;50.730;-1.932;2023-04-28T00:16:15;100388.16;;;11.50;100.00
49645;BME280;36494;50.730;-1.932;2023-04-28T00:18:40;100382.86;;;11.51;100.00
49645;BME280;36494;50.730;-1.932;2023-04-28T00:21:06;100381.19;;;11.54;100.00
49645;BME280;36494;50.730;-1.932;2023-04-28T00:23:31;100382.53;;;11.46;100.00
49645;BME280;36494;50.730;-1.932;2023-04-28T00:25:56;100378.51;;;11.38;100.00
49645;BME280;36494;50.730;-1.932;2023-04-28T00:28:22;100384.62;;;11.34;100.00
49645;BME280;36494;50.730;-1.932;2023-04-28T00:30:47;100387.30;;;11.36;100.00
49645;BME280;36494;50.730;-1.932;2023-04-28T00:33:12;100377.58;;;11.32;100.00
49645;BME280;36494;50.730;-1.932;2023-04-28T00:35:37;100375.46;;;11.29;100.00
49645;BME280;36494;50.730;-1.932;2023-04-28T00:38:03;100376.11;;;11.31;100.00
49645;BME280;36494;50.730;-1.932;2023-04-28T00:40:32;100381.27;;;11.28;100.00
49645;BME280;36494;50.730;-1.932;2023-04-28T00:42:53;100379.04;;;11.32;100.00
49645;BME280;36494;50.730;-1.932;2023-04-28T00:45:19;100374.10;;;11.33;100.00
49645;BME280;36494;50.730;-1.932;2023-04-28T00:47:44;100377.47;;;11.28;100.00
49645;BME280;36494;50.730;-1.932;2023-04-28T00:50:10;100370.25;;;11.17;100.00
49645;BME280;36494;50.730;-1.932;2023-04-28T00:52:35;100373.31;;;11.20;100.00
49645;BME280;36494;50.730;-1.932;2023-04-28T00:55:00;100366.37;;;11.23;100.00
49645;BME280;36494;50.730;-1.932;2023-04-28T00:57:25;100367.50;;;11.24;100.00
49645;BME280;36494;50.730;-1.932;2023-04-28T00:59:50;100364.01;;;11.29;100.00
49645;BME280;36494;50.730;-1.932;2023-04-28T01:02:16;100365.52;;;11.29;100.00
49645;BME280;36494;50.730;-1.932;2023-04-28T01:04:41;100362.83;;;11.32;100.00
49645;BME280;36494;50.730;-1.932;2023-04-28T01:07:06;100363.03;;;11.30;100.00
49645;BME280;36494;50.730;-1.932;2023-04-28T01:09:32;100360.36;;;11.27;100.00
49645;BME280;36494;50.730;-1.932;2023-04-28T01:11:57;100361.75;;;11.32;100.00
49645;BME280;36494;50.730;-1.932;2023-04-28T01:14:22;100364.90;;;11.23;100.00
49645;BME280;36494;50.730;-1.932;2023-04-28T01:16:48;100364.56;;;11.21;100.00
49645;BME280;36494;50.730;-1.932;2023-04-28T01:19:18;100369.28;;;11.12;100.00
49645;BME280;36494;50.730;-1.932;2023-04-28T01:21:38;100374.51;;;11.26;100.00
49645;BME280;36494;50.730;-1.932;2023-04-28T01:24:05;100377.84;;;11.25;100.00
49645;BME280;36494;50.730;-1.932;2023-04-28T01:26:29;100379.06;;;11.26;100.00
49645;BME280;36494;50.730;-1.932;2023-04-28T01:28:54;100380.74;;;11.32;100.00
49645;BME280;36494;50.730;-1.932;2023-04-28T01:31:19;100379.76;;;11.36;100.00
49645;BME280;36494;50.730;-1.932;2023-04-28T01:33:45;100384.66;;;11.35;100.00
49645;BME280;36494;50.730;-1.932;2023-04-28T01:36:10;100383.09;;;11.31;100.00
49645;BME280;36494;50.730;-1.932;2023-04-28T01:38:35;100382.16;;;11.27;100.00
49645;BME280;36494;50.730;-1.932;2023-04-28T01:41:01;100381.35;;;11.24;100.00
49645;BME280;36494;50.730;-1.932;2023-04-28T01:43:26;100380.96;;;11.30;100.00
49645;BME280;36494;50.730;-1.932;2023-04-28T01:45:51;100383.19;;;11.27;100.00
49645;BME280;36494;50.730;-1.932;2023-04-28T01:48:17;100387.22;;;11.25;100.00
49645;BME280;36494;50.730;-1.932;2023-04-28T01:50:42;100389.41;;;11.25;100.00
49645;BME280;36494;50.730;-1.932;2023-04-28T01:53:07;100390.90;;;11.23;100.00
49645;BME280;36494;50.730;-1.932;2023-04-28T01:55:32;100391.63;;;11.24;100.00
49645;BME280;36494;50.730;-1.932;2023-04-28T01:57:58;100394.60;;;11.27;100.00
49645;BME280;36494;50.730;-1.932;2023-04-28T02:00:23;100394.85;;;11.26;100.00
49645;BME280;36494;50.730;-1.932;2023-04-28T02:02:49;100397.63;;;11.24;100.00
49645;BME280;36494;50.730;-1.932;2023-04-28T02:05:14;100399.97;;;11.25;100.00
49645;BME280;36494;50.730;-1.932;2023-04-28T02:07:39;100403.86;;;11.17;100.00
49645;BME280;36494;50.730;-1.932;2023-04-28T02:10:06;100402.18;;;11.21;100.00
49645;BME280;36494;50.730;-1.932;2023-04-28T02:12:30;100403.15;;;11.19;100.00
49645;BME280;36494;50.730;-1.932;2023-04-28T02:14:56;100406.77;;;11.22;100.00
49645;BME280;36494;50.730;-1.932;2023-04-28T02:17:21;100411.83;;;11.23;100.00
49645;BME280;36494;50.730;-1.932;2023-04-28T02:19:46;100406.01;;;11.21;100.00
49645;BME280;36494;50.730;-1.932;2023-04-28T02:22:11;100409.95;;;11.10;100.00
49645;BME280;36494;50.730;-1.932;2023-04-28T02:24:37;100413.35;;;11.15;100.00
49645;BME280;36494;50.730;-1.932;2023-04-28T02:27:02;100416.07;;;11.14;100.00
49645;BME280;36494;50.730;-1.932;2023-04-28T02:29:27;100425.82;;;11.14;100.00
49645;BME280;36494;50.730;-1.932;2023-04-28T02:31:53;100427.88;;;11.15;100.00
49645;BME280;36494;50.730;-1.932;2023-04-28T02:34:19;100425.26;;;11.11;100.00
49645;BME280;36494;50.730;-1.932;2023-04-28T02:36:44;100428.82;;;11.09;100.00
49645;BME280;36494;50.730;-1.932;2023-04-28T02:39:10;100419.82;;;11.03;100.00
49645;BME280;36494;50.730;-1.932;2023-04-28T02:41:35;100424.92;;;11.04;100.00
49645;BME280;36494;50.730;-1.932;2023-04-28T02:44:00;100428.99;;;11.13;100.00
49645;BME280;36494;50.730;-1.932;2023-04-28T02:46:25;100431.27;;;11.13;100.00
49645;BME280;36494;50.730;-1.932;2023-04-28T02:48:51;100432.69;;;11.17;100.00
49645;BME280;36494;50.730;-1.932;2023-04-28T02:51:16;100428.30;;;11.16;100.00
49645;BME280;36494;50.730;-1.932;2023-04-28T02:53:41;100426.17;;;11.18;100.00
49645;BME280;36494;50.730;-1.932;2023-04-28T02:56:07;100431.29;;;11.16;100.00
49645;BME280;36494;50.730;-1.932;2023-04-28T02:58:32;100430.41;;;11.17;100.00
49645;BME280;36494;50.730;-1.932;2023-04-28T03:00:58;100429.76;;;11.17;100.00
49645;BME280;36494;50.730;-1.932;2023-04-28T03:03:23;100432.24;;;11.17;100.00
49645;BME280;36494;50.730;-1.932;2023-04-28T03:05:48;100426.28;;;11.13;100.00
49645;BME280;36494;50.730;-1.932;2023-04-28T03:08:14;100430.80;;;11.10;100.00
49645;BME280;36494;50.730;-1.932;2023-04-28T03:10:39;100428.18;;;11.16;100.00
49645;BME280;36494;50.730;-1.932;2023-04-28T03:13:04;100427.85;;;11.10;100.00
49645;BME280;36494;50.730;-1.932;2023-04-28T03:15:30;100429.94;;;11.11;100.00
49645;BME280;36494;50.730;-1.932;2023-04-28T03:17:55;100430.60;;;11.14;100.00
49645;BME280;36494;50.730;-1.932;2023-04-28T03:20:21;100429.31;;;11.15;100.00
49645;BME280;36494;50.730;-1.932;2023-04-28T03:22:46;100424.70;;;11.09;100.00
49645;BME280;36494;50.730;-1.932;2023-04-28T03:25:12;100422.79;;;11.03;100.00
49645;BME280;36494;50.730;-1.932;2023-04-28T03:27:37;100423.98;;;11.03;100.00
49645;BME280;36494;50.730;-1.932;2023-04-28T03:30:03;100424.79;;;11.07;100.00
49645;BME280;36494;50.730;-1.932;2023-04-28T03:32:28;100425.88;;;11.07;100.00
49645;BME280;36494;50.730;-1.932;2023-04-28T03:34:53;100422.97;;;11.01;100.00
49645;BME280;36494;50.730;-1.932;2023-04-28T03:37:19;100426.25;;;11.07;100.00
49645;BME280;36494;50.730;-1.932;2023-04-28T03:39:44;100423.95;;;11.01;100.00
49645;BME280;36494;50.730;-1.932;2023-04-28T03:42:10;100425.77;;;11.01;100.00
49645;BME280;36494;50.730;-1.932;2023-04-28T03:44:35;100432.78;;;11.01;100.00
49645;BME280;36494;50.730;-1.932;2023-04-28T03:47:01;100430.52;;;10.96;100.00
49645;BME280;36494;50.730;-1.932;2023-04-28T03:49:26;100430.22;;;10.98;100.00
49645;BME280;36494;50.730;-1.932;2023-04-28T03:51:51;100431.29;;;10.94;100.00
49645;BME280;36494;50.730;-1.932;2023-04-28T03:54:17;100433.83;;;10.86;100.00
49645;BME280;36494;50.730;-1.932;2023-04-28T03:56:43;100438.17;;;10.82;100.00
49645;BME280;36494;50.730;-1.932;2023-04-28T03:59:07;100440.16;;;10.85;100.00
49645;BME280;36494;50.730;-1.932;2023-04-28T04:01:33;100441.85;;;10.84;100.00
49645;BME280;36494;50.730;-1.932;2023-04-28T04:03:58;100442.91;;;10.89;100.00
49645;BME280;36494;50.730;-1.932;2023-04-28T04:06:23;100445.82;;;10.92;100.00
49645;BME280;36494;50.730;-1.932;2023-04-28T04:08:49;100446.41;;;10.78;100.00
49645;BME280;36494;50.730;-1.932;2023-04-28T04:11:14;100443.51;;;10.77;100.00
49645;BME280;36494;50.730;-1.932;2023-04-28T04:13:39;100447.85;;;10.77;100.00
49645;BME280;36494;50.730;-1.932;2023-04-28T04:16:05;100457.10;;;10.75;100.00
49645;BME280;36494;50.730;-1.932;2023-04-28T04:18:30;100454.63;;;10.81;100.00
49645;BME280;36494;50.730;-1.932;2023-04-28T04:20:56;100450.66;;;10.81;100.00
49645;BME280;36494;50.730;-1.932;2023-04-28T04:23:21;100452.51;;;10.84;100.00
49645;BME280;36494;50.730;-1.932;2023-04-28T04:25:47;100452.35;;;10.78;100.00
49645;BME280;36494;50.730;-1.932;2023-04-28T04:28:12;100453.72;;;10.78;100.00
49645;BME280;36494;50.730;-1.932;2023-04-28T04:30:38;100453.84;;;10.86;100.00
49645;BME280;36494;50.730;-1.932;2023-04-28T04:33:03;100453.03;;;10.87;100.00
49645;BME280;36494;50.730;-1.932;2023-04-28T04:35:28;100449.32;;;10.78;100.00
49645;BME280;36494;50.730;-1.932;2023-04-28T04:37:54;100447.69;;;10.87;100.00
49645;BME280;36494;50.730;-1.932;2023-04-28T04:40:19;100448.62;;;10.83;100.00
49645;BME280;36494;50.730;-1.932;2023-04-28T04:42:44;100445.15;;;10.83;100.00
49645;BME280;36494;50.730;-1.932;2023-04-28T04:45:10;100445.13;;;10.86;100.00
49645;BME280;36494;50.730;-1.932;2023-04-28T04:47:35;100448.81;;;10.89;100.00
49645;BME280;36494;50.730;-1.932;2023-04-28T04:50:00;100453.20;;;10.85;100.00
49645;BME280;36494;50.730;-1.932;2023-04-28T04:52:26;100453.91;;;10.90;100.00
49645;BME280;36494;50.730;-1.932;2023-04-28T04:54:51;100459.92;;;10.91;100.00
49645;BME280;36494;50.730;-1.932;2023-04-28T04:57:16;100462.40;;;10.90;100.00
49645;BME280;36494;50.730;-1.932;2023-04-28T04:59:42;100465.92;;;10.93;100.00
49645;BME280;36494;50.730;-1.932;2023-04-28T05:02:07;100465.45;;;10.94;100.00
49645;BME280;36494;50.730;-1.932;2023-04-28T05:04:32;100467.21;;;10.97;100.00
49645;BME280;36494;50.730;-1.932;2023-04-28T05:06:58;100470.66;;;10.96;100.00
49645;BME280;36494;50.730;-1.932;2023-04-28T05:09:23;100470.13;;;10.96;100.00
49645;BME280;36494;50.730;-1.932;2023-04-28T05:11:48;100475.12;;;10.95;100.00
49645;BME280;36494;50.730;-1.932;2023-04-28T05:14:14;100471.29;;;10.92;100.00
49645;BME280;36494;50.730;-1.932;2023-04-28T05:16:40;100473.03;;;10.98;100.00
49645;BME280;36494;50.730;-1.932;2023-04-28T05:19:05;100473.77;;;10.93;100.00
49645;BME280;36494;50.730;-1.932;2023-04-28T05:21:30;100482.75;;;10.95;100.00
49645;BME280;36494;50.730;-1.932;2023-04-28T05:23:55;100488.45;;;10.97;100.00
49645;BME280;36494;50.730;-1.932;2023-04-28T05:26:21;100492.28;;;10.96;100.00
49645;BME280;36494;50.730;-1.932;2023-04-28T05:28:46;100496.74;;;10.96;100.00
49645;BME280;36494;50.730;-1.932;2023-04-28T05:31:12;100502.19;;;11.02;100.00
49645;BME280;36494;50.730;-1.932;2023-04-28T05:33:37;100502.72;;;11.01;100.00
49645;BME280;36494;50.730;-1.932;2023-04-28T05:36:03;100503.12;;;11.05;100.00
49645;BME280;36494;50.730;-1.932;2023-04-28T05:38:28;100503.61;;;10.99;100.00
49645;BME280;36494;50.730;-1.932;2023-04-28T05:40:53;100503.60;;;11.05;100.00
49645;BME280;36494;50.730;-1.932;2023-04-28T05:43:19;100504.13;;;11.06;100.00
49645;BME280;36494;50.730;-1.932;2023-04-28T05:45:44;100503.02;;;11.10;100.00
49645;BME280;36494;50.730;-1.932;2023-04-28T05:48:09;100504.56;;;11.04;100.00
49645;BME280;36494;50.730;-1.932;2023-04-28T05:50:34;100507.25;;;11.05;100.00
49645;BME280;36494;50.730;-1.932;2023-04-28T05:53:00;100509.87;;;11.07;100.00
49645;BME280;36494;50.730;-1.932;2023-04-28T05:55:25;100516.13;;;11.10;100.00
49645;BME280;36494;50.730;-1.932;2023-04-28T05:57:52;100518.47;;;11.13;100.00
49645;BME280;36494;50.730;-1.932;2023-04-28T06:00:16;100523.24;;;11.14;100.00
49645;BME280;36494;50.730;-1.932;2023-04-28T06:02:41;100527.73;;;11.16;100.00
49645;BME280;36494;50.730;-1.932;2023-04-28T06:05:08;100529.88;;;11.20;100.00
49645;BME280;36494;50.730;-1.932;2023-04-28T06:07:32;100531.66;;;11.12;100.00
49645;BME280;36494;50.730;-1.932;2023-04-28T06:09:57;100536.89;;;11.14;100.00
49645;BME280;36494;50.730;-1.932;2023-04-28T06:12:23;100537.34;;;11.11;100.00
49645;BME280;36494;50.730;-1.932;2023-04-28T06:14:48;100540.81;;;11.10;100.00
49645;BME280;36494;50.730;-1.932;2023-04-28T06:17:14;100539.70;;;11.31;100.00
49645;BME280;36494;50.730;-1.932;2023-04-28T06:19:39;100540.46;;;11.32;100.00
49645;BME280;36494;50.730;-1.932;2023-04-28T06:22:04;100542.91;;;11.32;100.00
49645;BME280;36494;50.730;-1.932;2023-04-28T06:24:30;100542.17;;;11.12;100.00
49645;BME280;36494;50.730;-1.932;2023-04-28T06:26:56;100546.72;;;11.22;100.00
49645;BME280;36494;50.730;-1.932;2023-04-28T06:29:21;100549.16;;;11.38;100.00
49645;BME280;36494;50.730;-1.932;2023-04-28T06:31:47;100555.89;;;11.39;100.00
49645;BME280;36494;50.730;-1.932;2023-04-28T06:34:12;100561.27;;;11.44;100.00
49645;BME280;36494;50.730;-1.932;2023-04-28T06:36:37;100560.09;;;11.30;100.00
49645;BME280;36494;50.730;-1.932;2023-04-28T06:39:02;100566.09;;;11.40;100.00
49645;BME280;36494;50.730;-1.932;2023-04-28T06:41:28;100564.57;;;11.49;100.00
49645;BME280;36494;50.730;-1.932;2023-04-28T06:43:53;100565.97;;;11.52;100.00
49645;BME280;36494;50.730;-1.932;2023-04-28T06:46:18;100567.19;;;11.53;100.00
49645;BME280;36494;50.730;-1.932;2023-04-28T06:48:43;100571.33;;;11.55;100.00
49645;BME280;36494;50.730;-1.932;2023-04-28T06:51:09;100569.78;;;11.54;100.00
49645;BME280;36494;50.730;-1.932;2023-04-28T06:53:34;100572.09;;;11.51;100.00
49645;BME280;36494;50.730;-1.932;2023-04-28T06:55:59;100576.63;;;11.56;100.00
49645;BME280;36494;50.730;-1.932;2023-04-28T06:58:24;100581.58;;;11.58;100.00
49645;BME280;36494;50.730;-1.932;2023-04-28T07:00:49;100586.06;;;11.66;100.00
49645;BME280;36494;50.730;-1.932;2023-04-28T07:03:15;100588.38;;;11.72;100.00
49645;BME280;36494;50.730;-1.932;2023-04-28T07:05:40;100590.34;;;11.82;100.00
49645;BME280;36494;50.730;-1.932;2023-04-28T07:08:05;100587.55;;;11.78;100.00
49645;BME280;36494;50.730;-1.932;2023-04-28T07:10:30;100588.57;;;11.77;100.00
49645;BME280;36494;50.730;-1.932;2023-04-28T07:12:56;100593.30;;;11.82;100.00
49645;BME280;36494;50.730;-1.932;2023-04-28T07:15:22;100594.61;;;11.88;100.00
49645;BME280;36494;50.730;-1.932;2023-04-28T07:17:47;100596.51;;;11.95;100.00
49645;BME280;36494;50.730;-1.932;2023-04-28T07:20:14;100604.58;;;11.98;100.00
49645;BME280;36494;50.730;-1.932;2023-04-28T07:22:38;100605.31;;;11.97;100.00
49645;BME280;36494;50.730;-1.932;2023-04-28T07:25:03;100610.10;;;12.04;100.00
49645;BME280;36494;50.730;-1.932;2023-04-28T07:27:28;100606.96;;;12.03;100.00
49645;BME280;36494;50.730;-1.932;2023-04-28T07:29:53;100603.58;;;12.10;100.00
49645;BME280;36494;50.730;-1.932;2023-04-28T07:32:19;100604.89;;;12.08;100.00
49645;BME280;36494;50.730;-1.932;2023-04-28T07:34:44;100610.65;;;12.14;100.00
49645;BME280;36494;50.730;-1.932;2023-04-28T07:37:09;100607.74;;;12.15;100.00
49645;BME280;36494;50.730;-1.932;2023-04-28T07:39:35;100609.66;;;12.19;100.00
49645;BME280;36494;50.730;-1.932;2023-04-28T07:42:00;100612.70;;;12.24;100.00
49645;BME280;36494;50.730;-1.932;2023-04-28T07:44:25;100615.19;;;12.28;100.00
49645;BME280;36494;50.730;-1.932;2023-04-28T07:46:50;100622.66;;;12.40;100.00
49645;BME280;36494;50.730;-1.932;2023-04-28T07:49:16;100622.80;;;12.44;100.00
49645;BME280;36494;50.730;-1.932;2023-04-28T07:51:41;100623.99;;;12.47;100.00
49645;BME280;36494;50.730;-1.932;2023-04-28T07:54:06;100622.32;;;12.57;100.00
49645;BME280;36494;50.730;-1.932;2023-04-28T07:56:32;100620.94;;;12.63;100.00
49645;BME280;36494;50.730;-1.932;2023-04-28T07:58:57;100622.02;;;12.67;100.00
49645;BME280;36494;50.730;-1.932;2023-04-28T08:01:22;100629.18;;;12.67;100.00
49645;BME280;36494;50.730;-1.932;2023-04-28T08:03:47;100631.54;;;12.72;100.00
49645;BME280;36494;50.730;-1.932;2023-04-28T08:06:13;100637.01;;;12.70;100.00
49645;BME280;36494;50.730;-1.932;2023-04-28T08:08:38;100635.86;;;12.75;100.00
49645;BME280;36494;50.730;-1.932;2023-04-28T08:11:03;100640.29;;;12.79;100.00
49645;BME280;36494;50.730;-1.932;2023-04-28T08:13:29;100637.91;;;12.87;100.00
49645;BME280;36494;50.730;-1.932;2023-04-28T08:15:54;100634.80;;;12.88;100.00
49645;BME280;36494;50.730;-1.932;2023-04-28T08:18:19;100628.87;;;13.05;100.00
49645;BME280;36494;50.730;-1.932;2023-04-28T08:20:45;100629.18;;;13.20;100.00
49645;BME280;36494;50.730;-1.932;2023-04-28T08:23:10;100628.53;;;13.28;100.00
49645;BME280;36494;50.730;-1.932;2023-04-28T08:25:35;100638.75;;;13.34;100.00
49645;BME280;36494;50.730;-1.932;2023-04-28T08:28:01;100637.71;;;13.38;100.00
49645;BME280;36494;50.730;-1.932;2023-04-28T08:30:26;100636.66;;;13.52;100.00
49645;BME280;36494;50.730;-1.932;2023-04-28T08:32:51;100639.31;;;13.45;100.00
49645;BME280;36494;50.730;-1.932;2023-04-28T08:35:16;100635.30;;;13.49;100.00
49645;BME280;36494;50.730;-1.932;2023-04-28T08:37:42;100633.96;;;13.52;100.00
49645;BME280;36494;50.730;-1.932;2023-04-28T08:40:08;100636.69;;;13.51;100.00
49645;BME280;36494;50.730;-1.932;2023-04-28T08:42:32;100648.81;;;13.63;100.00
49645;BME280;36494;50.730;-1.932;2023-04-28T08:44:58;100649.75;;;13.62;100.00
49645;BME280;36494;50.730;-1.932;2023-04-28T08:47:23;100652.69;;;13.73;100.00
49645;BME280;36494;50.730;-1.932;2023-04-28T08:49:48;100652.87;;;13.83;100.00
49645;BME280;36494;50.730;-1.932;2023-04-28T08:52:16;100654.18;;;13.82;100.00
49645;BME280;36494;50.730;-1.932;2023-04-28T08:54:39;100652.71;;;13.94;100.00
49645;BME280;36494;50.730;-1.932;2023-04-28T08:57:07;100653.31;;;13.88;100.00
49645;BME280;36494;50.730;-1.932;2023-04-28T08:59:30;100661.89;;;13.96;100.00
49645;BME280;36494;50.730;-1.932;2023-04-28T09:01:54;100663.64;;;13.98;100.00
49645;BME280;36494;50.730;-1.932;2023-04-28T09:04:20;100672.48;;;14.06;100.00
49645;BME280;36494;50.730;-1.932;2023-04-28T09:06:45;100675.29;;;14.02;100.00
49645;BME280;36494;50.730;-1.932;2023-04-28T09:09:20;100677.73;;;14.02;100.00
49645;BME280;36494;50.730;-1.932;2023-04-28T09:14:10;100685.34;;;14.13;100.00
49645;BME280;36494;50.730;-1.932;2023-04-28T09:18:55;100690.74;;;14.30;100.00
49645;BME280;36494;50.730;-1.932;2023-04-28T09:21:17;100692.16;;;14.30;100.00
49645;BME280;36494;50.730;-1.932;2023-04-28T09:23:46;100697.55;;;14.29;100.00
49645;BME280;36494;50.730;-1.932;2023-04-28T09:26:08;100701.70;;;14.25;100.00
49645;BME280;36494;50.730;-1.932;2023-04-28T09:28:34;100698.19;;;14.38;100.00
49645;BME280;36494;50.730;-1.932;2023-04-28T09:30:58;100706.28;;;14.50;100.00
49645;BME280;36494;50.730;-1.932;2023-04-28T09:33:24;100709.72;;;14.48;100.00
49645;BME280;36494;50.730;-1.932;2023-04-28T09:35:49;100713.06;;;14.36;100.00
49645;BME280;36494;50.730;-1.932;2023-04-28T09:38:14;100719.84;;;14.29;100.00
49645;BME280;36494;50.730;-1.932;2023-04-28T09:40:51;100720.03;;;14.50;100.00
49645;BME280;36494;50.730;-1.932;2023-04-28T09:45:38;100721.54;;;14.31;100.00
49645;BME280;36494;50.730;-1.932;2023-04-28T09:48:08;100728.05;;;14.41;100.00
49645;BME280;36494;50.730;-1.932;2023-04-28T09:50:20;100731.12;;;14.50;100.00
49645;BME280;36494;50.730;-1.932;2023-04-28T09:52:54;100726.51;;;14.26;100.00
49645;BME280;36494;50.730;-1.932;2023-04-28T09:55:11;100729.25;;;14.56;100.00
49645;BME280;36494;50.730;-1.932;2023-04-28T09:57:38;100730.84;;;14.58;100.00
49645;BME280;36494;50.730;-1.932;2023-04-28T10:00:03;100739.09;;;14.55;100.00
49645;BME280;36494;50.730;-1.932;2023-04-28T10:02:27;100739.02;;;14.52;100.00
49645;BME280;36494;50.730;-1.932;2023-04-28T10:04:52;100741.33;;;14.72;100.00
49645;BME280;36494;50.730;-1.932;2023-04-28T10:07:19;100743.42;;;14.72;100.00
49645;BME280;36494;50.730;-1.932;2023-04-28T10:09:43;100742.52;;;14.59;100.00
49645;BME280;36494;50.730;-1.932;2023-04-28T10:12:08;100748.18;;;14.54;100.00
49645;BME280;36494;50.730;-1.932;2023-04-28T10:14:33;100745.69;;;14.70;100.00
49645;BME280;36494;50.730;-1.932;2023-04-28T10:16:59;100754.32;;;14.78;100.00
49645;BME280;36494;50.730;-1.932;2023-04-28T10:19:24;100754.41;;;14.77;100.00
49645;BME280;36494;50.730;-1.932;2023-04-28T10:21:56;100758.11;;;14.89;100.00
49645;BME280;36494;50.730;-1.932;2023-04-28T10:24:17;100756.77;;;14.76;100.00
49645;BME280;36494;50.730;-1.932;2023-04-28T10:29:05;100764.16;;;15.03;100.00
49645;BME280;36494;50.730;-1.932;2023-04-28T10:31:30;100768.71;;;15.23;100.00
49645;BME280;36494;50.730;-1.932;2023-04-28T10:43:38;100778.61;;;15.12;100.00
49645;BME280;36494;50.730;-1.932;2023-04-28T10:46:04;100781.57;;;15.18;100.00
49645;BME280;36494;50.730;-1.932;2023-04-28T10:53:18;100780.46;;;15.41;100.00
49645;BME280;36494;50.730;-1.932;2023-04-28T10:55:43;100784.83;;;15.45;100.00
49645;BME280;36494;50.730;-1.932;2023-04-28T11:00:34;100790.79;;;15.29;100.00
49645;BME280;36494;50.730;-1.932;2023-04-28T11:02:59;100793.67;;;15.10;100.00
49645;BME280;36494;50.730;-1.932;2023-04-28T11:05:25;100791.34;;;15.23;100.00
49645;BME280;36494;50.730;-1.932;2023-04-28T11:10:15;100796.98;;;15.38;100.00
49645;BME280;36494;50.730;-1.932;2023-04-28T11:15:12;100797.38;;;15.51;100.00
49645;BME280;36494;50.730;-1.932;2023-04-28T11:17:38;100801.68;;;15.48;100.00
49645;BME280;36494;50.730;-1.932;2023-04-28T11:19:58;100798.45;;;15.57;100.00
49645;BME280;36494;50.730;-1.932;2023-04-28T11:22:22;100805.39;;;15.48;100.00
49645;BME280;36494;50.730;-1.932;2023-04-28T11:24:55;100804.41;;;15.45;100.00
49645;BME280;36494;50.730;-1.932;2023-04-28T11:27:21;100805.15;;;15.41;100.00
49645;BME280;36494;50.730;-1.932;2023-04-28T11:29:39;100806.12;;;15.42;100.00
49645;BME280;36494;50.730;-1.932;2023-04-28T11:32:03;100806.99;;;15.56;100.00
49645;BME280;36494;50.730;-1.932;2023-04-28T11:34:28;100805.53;;;15.64;100.00
49645;BME280;36494;50.730;-1.932;2023-04-28T11:36:53;100804.12;;;15.62;100.00
49645;BME280;36494;50.730;-1.932;2023-04-28T11:39:25;100803.04;;;15.80;100.00
49645;BME280;36494;50.730;-1.932;2023-04-28T11:41:44;100803.01;;;16.07;100.00
49645;BME280;36494;50.730;-1.932;2023-04-28T11:44:10;100807.23;;;16.21;100.00
49645;BME280;36494;50.730;-1.932;2023-04-28T11:46:34;100810.93;;;16.03;100.00
49645;BME280;36494;50.730;-1.932;2023-04-28T11:49:01;100814.49;;;16.01;100.00
49645;BME280;36494;50.730;-1.932;2023-04-28T11:51:34;100815.20;;;15.88;100.00
49645;BME280;36494;50.730;-1.932;2023-04-28T11:53:50;100814.28;;;15.83;100.00
49645;BME280;36494;50.730;-1.932;2023-04-28T11:56:15;100814.22;;;16.06;100.00
49645;BME280;36494;50.730;-1.932;2023-04-28T11:58:40;100817.79;;;15.96;100.00
49645;BME280;36494;50.730;-1.932;2023-04-28T12:01:07;100820.36;;;16.07;100.00
49645;BME280;36494;50.730;-1.932;2023-04-28T12:03:31;100813.81;;;16.38;100.00
49645;BME280;36494;50.730;-1.932;2023-04-28T12:05:56;100810.18;;;16.54;100.00
49645;BME280;36494;50.730;-1.932;2023-04-28T12:08:27;100812.48;;;16.54;100.00
49645;BME280;36494;50.730;-1.932;2023-04-28T12:13:15;100820.96;;;16.27;100.00
49645;BME280;36494;50.730;-1.932;2023-04-28T12:15:39;100820.95;;;16.14;100.00
49645;BME280;36494;50.730;-1.932;2023-04-28T12:18:08;100824.85;;;16.25;100.00
49645;BME280;36494;50.730;-1.932;2023-04-28T12:20:34;100832.55;;;16.11;100.00
49645;BME280;36494;50.730;-1.932;2023-04-28T12:22:53;100829.19;;;16.68;100.00
49645;BME280;36494;50.730;-1.932;2023-04-28T12:25:18;100828.69;;;16.78;100.00
49645;BME280;36494;50.730;-1.932;2023-04-28T12:30:24;100836.09;;;16.80;100.00
49645;BME280;36494;50.730;-1.932;2023-04-28T12:32:37;100838.93;;;17.07;100.00
49645;BME280;36494;50.730;-1.932;2023-04-28T12:34:59;100836.93;;;17.23;100.00
49645;BME280;36494;50.730;-1.932;2023-04-28T12:37:25;100835.09;;;17.44;100.00
49645;BME280;36494;50.730;-1.932;2023-04-28T12:39:50;100831.26;;;17.39;100.00
49645;BME280;36494;50.730;-1.932;2023-04-28T12:42:15;100836.40;;;17.51;100.00
49645;BME280;36494;50.730;-1.932;2023-04-28T12:44:40;100841.63;;;17.48;100.00
49645;BME280;36494;50.730;-1.932;2023-04-28T12:47:07;100844.97;;;17.52;100.00
49645;BME280;36494;50.730;-1.932;2023-04-28T12:49:31;100844.50;;;17.55;100.00
49645;BME280;36494;50.730;-1.932;2023-04-28T12:51:56;100847.49;;;17.96;100.00
49645;BME280;36494;50.730;-1.932;2023-04-28T12:54:21;100846.16;;;18.34;100.00
49645;BME280;36494;50.730;-1.932;2023-04-28T12:56:47;100851.03;;;18.54;100.00